sensor_id;sensor_type;location;lat;lon;timestamp;pressure;altitude;pressure_sealevel;temperature;humidity
15050;BME280;7622;42.724;23.250;2022-08-23T00:02:03;94161.91;;;19.26;100.00
15050;BME280;7622;42.724;23.250;2022-08-23T00:04:34;94160.97;;;19.14;100.00
15050;BME280;7622;42.724;23.250;2022-08-23T00:07:04;94174.13;;;19.14;100.00
15050;BME280;7622;42.724;23.250;2022-08-23T00:09:31;94172.06;;;19.16;100.00
15050;BME280;7622;42.724;23.250;2022-08-23T00:12:06;94181.56;;;19.24;100.00
15050;BME280;7622;42.724;23.250;2022-08-23T00:14:35;94169.44;;;19.16;100.00
15050;BME280;7622;42.724;23.250;2022-08-23T00:17:04;94188.03;;;19.35;100.00
15050;BME280;7622;42.724;23.250;2022-08-23T00:19:35;94195.56;;;19.24;100.00
15050;BME280;7622;42.724;23.250;2022-08-23T00:22:03;94185.78;;;19.38;100.00
15050;BME280;7622;42.724;23.250;2022-08-23T00:24:29;94180.47;;;19.45;100.00
15050;BME280;7622;42.724;23.250;2022-08-23T00:27:01;94187.66;;;19.24;100.00
15050;BME280;7622;42.724;23.250;2022-08-23T00:29:31;94175.13;;;19.13;100.00
15050;BME280;7622;42.724;23.250;2022-08-23T00:31:59;94151.72;;;18.92;100.00
15050;BME280;7622;42.724;23.250;2022-08-23T00:34:26;94178.97;;;19.17;100.00
15050;BME280;7622;42.724;23.250;2022-08-23T00:36:55;94158.88;;;19.23;100.00
15050;BME280;7622;42.724;23.250;2022-08-23T00:39:22;94188.66;;;19.23;100.00
15050;BME280;7622;42.724;23.250;2022-08-23T00:41:50;94193.75;;;19.18;100.00
15050;BME280;7622;42.724;23.250;2022-08-23T00:44:20;94192.13;;;19.17;100.00
15050;BME280;7622;42.724;23.250;2022-08-23T00:47:07;94190.94;;;19.13;100.00
15050;BME280;7622;42.724;23.250;2022-08-23T00:49:56;94187.09;;;19.03;100.00
15050;BME280;7622;42.724;23.250;2022-08-23T00:52:31;94186.53;;;19.01;100.00
15050;BME280;7622;42.724;23.250;2022-08-23T00:55:00;94179.44;;;19.01;100.00
15050;BME280;7622;42.724;23.250;2022-08-23T00:57:28;94187.34;;;18.88;100.00
15050;BME280;7622;42.724;23.250;2022-08-23T00:59:56;94194.19;;;18.96;100.00
15050;BME280;7622;42.724;23.250;2022-08-23T01:02:23;94192.59;;;18.88;100.00
15050;BME280;7622;42.724;23.250;2022-08-23T01:04:53;94201.53;;;18.87;100.00
15050;BME280;7622;42.724;23.250;2022-08-23T01:07:30;94188.97;;;18.89;100.00
15050;BME280;7622;42.724;23.250;2022-08-23T01:10:05;94191.38;;;18.91;100.00
15050;BME280;7622;42.724;23.250;2022-08-23T01:12:39;94196.84;;;18.96;100.00
15050;BME280;7622;42.724;23.250;2022-08-23T01:15:21;94190.19;;;18.93;100.00
15050;BME280;7622;42.724;23.250;2022-08-23T01:17:53;94188.56;;;18.92;100.00
15050;BME280;7622;42.724;23.250;2022-08-23T01:20:22;94189.13;;;19.07;100.00
15050;BME280;7622;42.724;23.250;2022-08-23T01:22:56;94205.34;;;19.04;100.00
15050;BME280;7622;42.724;23.250;2022-08-23T01:25:28;94198.06;;;19.00;100.00
15050;BME280;7622;42.724;23.250;2022-08-23T01:27:56;94205.91;;;19.19;100.00
15050;BME280;7622;42.724;23.250;2022-08-23T01:30:26;94202.84;;;19.16;100.00
15050;BME280;7622;42.724;23.250;2022-08-23T01:32:57;94204.31;;;19.05;100.00
15050;BME280;7622;42.724;23.250;2022-08-23T01:35:33;94205.53;;;19.03;100.00
15050;BME280;7622;42.724;23.250;2022-08-23T01:38:02;94208.16;;;19.09;100.00
15050;BME280;7622;42.724;23.250;2022-08-23T01:40:31;94188.13;;;19.02;100.00
15050;BME280;7622;42.724;23.250;2022-08-23T01:42:58;94202.09;;;19.02;100.00
15050;BME280;7622;42.724;23.250;2022-08-23T01:45:26;94199.84;;;19.12;100.00
15050;BME280;7622;42.724;23.250;2022-08-23T01:47:54;94199.41;;;19.15;100.00
15050;BME280;7622;42.724;23.250;2022-08-23T01:50:20;94192.16;;;19.04;100.00
15050;BME280;7622;42.724;23.250;2022-08-23T01:52:47;94204.69;;;19.15;100.00
15050;BME280;7622;42.724;23.250;2022-08-23T01:55:15;94195.56;;;19.18;100.00
15050;BME280;7622;42.724;23.250;2022-08-23T01:57:44;94175.53;;;19.10;100.00
15050;BME280;7622;42.724;23.250;2022-08-23T02:00:12;94186.47;;;19.20;100.00
15050;BME280;7622;42.724;23.250;2022-08-23T02:02:39;94183.66;;;19.02;100.00
15050;BME280;7622;42.724;23.250;2022-08-23T02:05:08;94191.38;;;18.97;100.00
15050;BME280;7622;42.724;23.250;2022-08-23T02:07:35;94179.19;;;19.09;100.00
15050;BME280;7622;42.724;23.250;2022-08-23T02:10:02;94184.69;;;19.01;100.00
15050;BME280;7622;42.724;23.250;2022-08-23T02:12:29;94187.34;;;19.01;100.00
15050;BME280;7622;42.724;23.250;2022-08-23T02:14:57;94199.03;;;19.18;100.00
15050;BME280;7622;42.724;23.250;2022-08-23T02:17:24;94189.66;;;19.22;100.00
15050;BME280;7622;42.724;23.250;2022-08-23T02:19:51;94140.13;;;19.06;100.00
15050;BME280;7622;42.724;23.250;2022-08-23T02:22:19;94191.25;;;19.37;100.00
15050;BME280;7622;42.724;23.250;2022-08-23T02:24:46;94189.28;;;19.19;100.00
15050;BME280;7622;42.724;23.250;2022-08-23T02:27:14;94184.41;;;19.29;100.00
15050;BME280;7622;42.724;23.250;2022-08-23T02:29:42;94185.63;;;19.26;100.00
15050;BME280;7622;42.724;23.250;2022-08-23T02:32:12;94175.44;;;19.37;100.00
15050;BME280;7622;42.724;23.250;2022-08-23T02:34:40;94185.38;;;19.41;100.00
15050;BME280;7622;42.724;23.250;2022-08-23T02:37:08;94185.38;;;19.48;100.00
15050;BME280;7622;42.724;23.250;2022-08-23T02:39:36;94181.94;;;19.41;100.00
15050;BME280;7622;42.724;23.250;2022-08-23T02:42:03;94182.38;;;19.24;100.00
15050;BME280;7622;42.724;23.250;2022-08-23T02:44:30;94188.63;;;19.30;100.00
15050;BME280;7622;42.724;23.250;2022-08-23T02:46:59;94178.78;;;19.12;100.00
15050;BME280;7622;42.724;23.250;2022-08-23T02:49:27;94180.44;;;19.00;100.00
15050;BME280;7622;42.724;23.250;2022-08-23T02:51:54;94193.03;;;18.85;100.00
15050;BME280;7622;42.724;23.250;2022-08-23T02:54:21;94192.63;;;18.75;100.00
15050;BME280;7622;42.724;23.250;2022-08-23T02:56:48;94187.78;;;18.72;100.00
15050;BME280;7622;42.724;23.250;2022-08-23T02:59:16;94187.56;;;18.60;100.00
15050;BME280;7622;42.724;23.250;2022-08-23T03:01:43;94193.44;;;18.69;100.00
15050;BME280;7622;42.724;23.250;2022-08-23T03:04:10;94182.53;;;18.59;100.00
15050;BME280;7622;42.724;23.250;2022-08-23T03:06:39;94185.34;;;18.50;100.00
15050;BME280;7622;42.724;23.250;2022-08-23T03:09:06;94183.94;;;18.35;100.00
15050;BME280;7622;42.724;23.250;2022-08-23T03:11:34;94180.09;;;18.44;100.00
15050;BME280;7622;42.724;23.250;2022-08-23T03:14:00;94183.72;;;18.49;100.00
15050;BME280;7622;42.724;23.250;2022-08-23T03:16:28;94184.75;;;18.68;100.00
15050;BME280;7622;42.724;23.250;2022-08-23T03:18:54;94188.56;;;18.92;100.00
15050;BME280;7622;42.724;23.250;2022-08-23T03:21:21;94184.09;;;18.99;100.00
15050;BME280;7622;42.724;23.250;2022-08-23T03:23:50;94182.66;;;19.03;100.00
15050;BME280;7622;42.724;23.250;2022-08-23T03:26:17;94177.41;;;18.97;100.00
15050;BME280;7622;42.724;23.250;2022-08-23T03:28:44;94176.00;;;18.94;100.00
15050;BME280;7622;42.724;23.250;2022-08-23T03:31:13;94176.22;;;18.93;100.00
15050;BME280;7622;42.724;23.250;2022-08-23T03:33:40;94181.81;;;19.09;100.00
15050;BME280;7622;42.724;23.250;2022-08-23T03:36:09;94187.13;;;18.89;100.00
15050;BME280;7622;42.724;23.250;2022-08-23T03:38:37;94180.06;;;18.90;100.00
15050;BME280;7622;42.724;23.250;2022-08-23T03:41:06;94184.50;;;18.89;100.00
15050;BME280;7622;42.724;23.250;2022-08-23T03:43:34;94177.66;;;18.69;100.00
15050;BME280;7622;42.724;23.250;2022-08-23T03:46:00;94184.16;;;18.66;100.00
15050;BME280;7622;42.724;23.250;2022-08-23T03:48:27;94197.09;;;18.68;100.00
15050;BME280;7622;42.724;23.250;2022-08-23T03:50:55;94192.44;;;18.63;100.00
15050;BME280;7622;42.724;23.250;2022-08-23T03:53:22;94205.41;;;18.65;100.00
15050;BME280;7622;42.724;23.250;2022-08-23T03:55:50;94218.56;;;18.58;100.00
15050;BME280;7622;42.724;23.250;2022-08-23T03:58:20;94197.50;;;18.25;100.00
15050;BME280;7622;42.724;23.250;2022-08-23T04:00:47;94228.47;;;18.56;100.00
15050;BME280;7622;42.724;23.250;2022-08-23T04:03:14;94245.69;;;18.59;100.00
15050;BME280;7622;42.724;23.250;2022-08-23T04:05:41;94257.81;;;18.60;100.00
15050;BME280;7622;42.724;23.250;2022-08-23T04:08:08;94257.81;;;18.60;100.00
15050;BME280;7622;42.724;23.250;2022-08-23T04:10:35;94263.91;;;18.67;100.00
15050;BME280;7622;42.724;23.250;2022-08-23T04:13:03;94248.50;;;18.57;100.00
15050;BME280;7622;42.724;23.250;2022-08-23T04:15:32;94257.22;;;18.64;100.00
15050;BME280;7622;42.724;23.250;2022-08-23T04:17:59;94267.53;;;18.66;100.00
15050;BME280;7622;42.724;23.250;2022-08-23T04:20:26;94262.88;;;18.61;100.00
15050;BME280;7622;42.724;23.250;2022-08-23T04:22:53;94264.91;;;18.72;100.00
15050;BME280;7622;42.724;23.250;2022-08-23T04:25:20;94264.72;;;18.74;100.00
15050;BME280;7622;42.724;23.250;2022-08-23T04:27:47;94269.34;;;18.65;100.00
15050;BME280;7622;42.724;23.250;2022-08-23T04:30:14;94261.84;;;18.69;100.00
15050;BME280;7622;42.724;23.250;2022-08-23T04:32:45;94264.69;;;18.67;100.00
15050;BME280;7622;42.724;23.250;2022-08-23T04:35:13;94272.00;;;18.72;100.00
15050;BME280;7622;42.724;23.250;2022-08-23T04:37:39;94270.56;;;18.76;100.00
15050;BME280;7622;42.724;23.250;2022-08-23T04:40:08;94266.53;;;18.80;100.00
15050;BME280;7622;42.724;23.250;2022-08-23T04:42:52;94267.31;;;18.94;100.00
15050;BME280;7622;42.724;23.250;2022-08-23T04:45:38;94278.44;;;19.02;100.00
15050;BME280;7622;42.724;23.250;2022-08-23T04:48:27;94277.44;;;19.03;100.00
15050;BME280;7622;42.724;23.250;2022-08-23T04:51:14;94272.78;;;19.05;100.00
15050;BME280;7622;42.724;23.250;2022-08-23T04:54:02;94257.00;;;18.92;100.00
15050;BME280;7622;42.724;23.250;2022-08-23T04:56:30;94277.66;;;19.08;100.00
15050;BME280;7622;42.724;23.250;2022-08-23T04:58:57;94276.41;;;19.17;100.00
15050;BME280;7622;42.724;23.250;2022-08-23T05:01:24;94272.75;;;19.18;100.00
15050;BME280;7622;42.724;23.250;2022-08-23T05:03:53;94274.75;;;19.29;100.00
15050;BME280;7622;42.724;23.250;2022-08-23T05:06:20;94275.19;;;19.13;100.00
15050;BME280;7622;42.724;23.250;2022-08-23T05:09:06;94281.28;;;19.07;100.00
15050;BME280;7622;42.724;23.250;2022-08-23T05:11:53;94283.28;;;19.12;100.00
15050;BME280;7622;42.724;23.250;2022-08-23T05:14:40;94294.66;;;19.06;100.00
15050;BME280;7622;42.724;23.250;2022-08-23T05:17:28;94296.25;;;19.13;100.00
15050;BME280;7622;42.724;23.250;2022-08-23T05:20:16;94279.66;;;19.13;100.00
15050;BME280;7622;42.724;23.250;2022-08-23T05:23:04;94302.13;;;19.28;100.00
15050;BME280;7622;42.724;23.250;2022-08-23T05:25:51;94296.63;;;19.50;100.00
15050;BME280;7622;42.724;23.250;2022-08-23T05:28:41;94293.38;;;19.48;100.00
15050;BME280;7622;42.724;23.250;2022-08-23T05:31:29;94293.75;;;19.58;100.00
15050;BME280;7622;42.724;23.250;2022-08-23T05:34:17;94292.84;;;19.90;100.00
15050;BME280;7622;42.724;23.250;2022-08-23T05:37:05;94299.25;;;20.08;100.00
15050;BME280;7622;42.724;23.250;2022-08-23T05:39:52;94296.41;;;20.47;100.00
15050;BME280;7622;42.724;23.250;2022-08-23T05:42:39;94302.53;;;20.97;100.00
15050;BME280;7622;42.724;23.250;2022-08-23T05:45:27;94298.84;;;20.80;100.00
15050;BME280;7622;42.724;23.250;2022-08-23T05:48:14;94236.75;;;20.71;100.00
15050;BME280;7622;42.724;23.250;2022-08-23T05:51:12;94293.31;;;21.31;100.00
15050;BME280;7622;42.724;23.250;2022-08-23T05:54:03;94291.38;;;21.81;100.00
15050;BME280;7622;42.724;23.250;2022-08-23T05:56:51;94286.69;;;22.02;100.00
15050;BME280;7622;42.724;23.250;2022-08-23T05:59:18;94297.16;;;22.08;100.00
15050;BME280;7622;42.724;23.250;2022-08-23T06:01:44;94292.81;;;22.32;100.00
15050;BME280;7622;42.724;23.250;2022-08-23T06:04:11;94285.47;;;22.46;100.00
15050;BME280;7622;42.724;23.250;2022-08-23T06:06:39;94299.91;;;22.61;100.00
15050;BME280;7622;42.724;23.250;2022-08-23T06:09:10;94304.38;;;22.79;100.00
15050;BME280;7622;42.724;23.250;2022-08-23T06:11:37;94307.03;;;22.91;100.00
15050;BME280;7622;42.724;23.250;2022-08-23T06:14:06;94309.59;;;23.21;100.00
15050;BME280;7622;42.724;23.250;2022-08-23T06:16:36;94314.34;;;23.42;100.00
15050;BME280;7622;42.724;23.250;2022-08-23T06:19:04;94313.28;;;23.31;100.00
15050;BME280;7622;42.724;23.250;2022-08-23T06:21:31;94317.69;;;23.84;100.00
15050;BME280;7622;42.724;23.250;2022-08-23T06:23:58;94314.50;;;24.22;100.00
15050;BME280;7622;42.724;23.250;2022-08-23T06:26:28;94317.72;;;24.24;100.00
15050;BME280;7622;42.724;23.250;2022-08-23T06:29:00;94326.44;;;24.36;100.00
15050;BME280;7622;42.724;23.250;2022-08-23T06:31:28;94335.97;;;24.60;100.00
15050;BME280;7622;42.724;23.250;2022-08-23T06:34:20;94332.34;;;24.38;100.00
15050;BME280;7622;42.724;23.250;2022-08-23T06:36:49;94324.84;;;25.25;100.00
15050;BME280;7622;42.724;23.250;2022-08-23T06:39:17;94320.81;;;25.39;100.00
15050;BME280;7622;42.724;23.250;2022-08-23T06:41:47;94325.16;;;25.45;100.00
15050;BME280;7622;42.724;23.250;2022-08-23T06:44:15;94325.34;;;25.39;100.00
15050;BME280;7622;42.724;23.250;2022-08-23T06:46:43;94309.22;;;25.45;100.00
15050;BME280;7622;42.724;23.250;2022-08-23T06:49:11;94315.94;;;25.86;100.00
15050;BME280;7622;42.724;23.250;2022-08-23T06:51:40;94323.56;;;26.21;100.00
15050;BME280;7622;42.724;23.250;2022-08-23T06:54:10;94312.91;;;26.21;100.00
15050;BME280;7622;42.724;23.250;2022-08-23T06:56:38;94326.56;;;25.65;100.00
15050;BME280;7622;42.724;23.250;2022-08-23T06:59:07;94319.41;;;26.25;100.00
15050;BME280;7622;42.724;23.250;2022-08-23T07:01:39;94330.78;;;26.43;100.00
15050;BME280;7622;42.724;23.250;2022-08-23T07:04:09;94324.00;;;25.92;100.00
15050;BME280;7622;42.724;23.250;2022-08-23T07:06:36;94319.41;;;26.25;100.00
15050;BME280;7622;42.724;23.250;2022-08-23T07:09:04;94316.81;;;25.92;100.00
15050;BME280;7622;42.724;23.250;2022-08-23T07:11:31;94323.22;;;26.35;100.00
15050;BME280;7622;42.724;23.250;2022-08-23T07:13:58;94324.94;;;26.67;100.00
15050;BME280;7622;42.724;23.250;2022-08-23T07:16:31;94325.81;;;26.78;100.00
15050;BME280;7622;42.724;23.250;2022-08-23T07:18:58;94324.91;;;26.89;100.00
15050;BME280;7622;42.724;23.250;2022-08-23T07:21:25;94335.94;;;27.30;100.00
15050;BME280;7622;42.724;23.250;2022-08-23T07:23:52;94329.63;;;27.46;100.00
15050;BME280;7622;42.724;23.250;2022-08-23T07:26:19;94332.22;;;27.68;100.00
15050;BME280;7622;42.724;23.250;2022-08-23T07:28:47;94330.03;;;27.60;100.00
15050;BME280;7622;42.724;23.250;2022-08-23T07:31:16;94314.22;;;27.53;100.00
15050;BME280;7622;42.724;23.250;2022-08-23T07:33:45;94329.66;;;27.88;100.00
15050;BME280;7622;42.724;23.250;2022-08-23T07:36:14;94334.47;;;28.33;100.00
15050;BME280;7622;42.724;23.250;2022-08-23T07:38:41;94326.66;;;28.89;100.00
15050;BME280;7622;42.724;23.250;2022-08-23T07:41:09;94306.78;;;28.02;100.00
15050;BME280;7622;42.724;23.250;2022-08-23T07:43:38;94335.03;;;27.51;100.00
15050;BME280;7622;42.724;23.250;2022-08-23T07:46:05;94325.81;;;26.51;100.00
15050;BME280;7622;42.724;23.250;2022-08-23T07:48:33;94336.72;;;26.50;100.00
15050;BME280;7622;42.724;23.250;2022-08-23T07:51:05;94329.19;;;26.03;100.00
15050;BME280;7622;42.724;23.250;2022-08-23T07:53:33;94293.22;;;25.79;100.00
15050;BME280;7622;42.724;23.250;2022-08-23T07:56:03;94324.88;;;25.97;100.00
15050;BME280;7622;42.724;23.250;2022-08-23T07:58:29;94336.19;;;25.87;100.00
15050;BME280;7622;42.724;23.250;2022-08-23T08:00:56;94341.78;;;25.86;100.00
15050;BME280;7622;42.724;23.250;2022-08-23T08:03:33;94342.72;;;25.80;100.00
15050;BME280;7622;42.724;23.250;2022-08-23T08:06:06;94333.88;;;25.41;100.00
15050;BME280;7622;42.724;23.250;2022-08-23T08:08:33;94341.97;;;25.29;100.00
15050;BME280;7622;42.724;23.250;2022-08-23T08:11:00;94349.22;;;25.50;100.00
15050;BME280;7622;42.724;23.250;2022-08-23T08:13:27;94350.00;;;25.68;100.00
15050;BME280;7622;42.724;23.250;2022-08-23T08:15:55;94345.81;;;25.55;100.00
15050;BME280;7622;42.724;23.250;2022-08-23T08:18:22;94345.16;;;25.81;100.00
15050;BME280;7622;42.724;23.250;2022-08-23T08:20:49;94347.00;;;25.81;100.00
15050;BME280;7622;42.724;23.250;2022-08-23T08:23:17;94355.00;;;25.47;100.00
15050;BME280;7622;42.724;23.250;2022-08-23T08:25:44;94361.94;;;25.15;100.00
15050;BME280;7622;42.724;23.250;2022-08-23T08:28:11;94356.84;;;25.14;100.00
15050;BME280;7622;42.724;23.250;2022-08-23T08:30:38;94355.78;;;25.31;100.00
15050;BME280;7622;42.724;23.250;2022-08-23T08:33:05;94363.78;;;25.31;100.00
15050;BME280;7622;42.724;23.250;2022-08-23T08:35:32;94356.63;;;25.48;100.00
15050;BME280;7622;42.724;23.250;2022-08-23T08:38:01;94363.31;;;25.68;100.00
15050;BME280;7622;42.724;23.250;2022-08-23T08:40:33;94363.84;;;25.53;100.00
15050;BME280;7622;42.724;23.250;2022-08-23T08:43:13;94360.13;;;25.87;100.00
15050;BME280;7622;42.724;23.250;2022-08-23T08:45:54;94354.06;;;26.52;100.00
15050;BME280;7622;42.724;23.250;2022-08-23T08:48:23;94343.97;;;26.54;100.00
15050;BME280;7622;42.724;23.250;2022-08-23T08:50:55;94356.75;;;25.92;100.00
15050;BME280;7622;42.724;23.250;2022-08-23T08:53:27;94351.28;;;25.32;100.00
15050;BME280;7622;42.724;23.250;2022-08-23T08:56:00;94350.50;;;24.86;100.00
15050;BME280;7622;42.724;23.250;2022-08-23T08:58:31;94346.56;;;24.89;100.00
15050;BME280;7622;42.724;23.250;2022-08-23T09:01:04;94337.28;;;25.03;100.00
15050;BME280;7622;42.724;23.250;2022-08-23T09:03:34;94338.41;;;25.07;100.00
15050;BME280;7622;42.724;23.250;2022-08-23T09:06:10;94319.69;;;25.19;100.00
15050;BME280;7622;42.724;23.250;2022-08-23T09:08:46;94328.00;;;25.56;100.00
15050;BME280;7622;42.724;23.250;2022-08-23T09:11:27;94325.50;;;25.66;100.00
15050;BME280;7622;42.724;23.250;2022-08-23T09:14:32;94319.53;;;25.97;100.00
15050;BME280;7622;42.724;23.250;2022-08-23T09:17:05;94316.22;;;26.28;100.00
15050;BME280;7622;42.724;23.250;2022-08-23T09:19:37;94301.81;;;26.08;100.00
15050;BME280;7622;42.724;23.250;2022-08-23T09:22:08;94309.72;;;26.19;100.00
15050;BME280;7622;42.724;23.250;2022-08-23T09:24:38;94317.34;;;26.54;100.00
15050;BME280;7622;42.724;23.250;2022-08-23T09:27:06;94321.59;;;27.41;100.00
15050;BME280;7622;42.724;23.250;2022-08-23T09:29:35;94317.97;;;28.56;100.00
15050;BME280;7622;42.724;23.250;2022-08-23T09:32:04;94320.50;;;29.09;100.00
15050;BME280;7622;42.724;23.250;2022-08-23T09:34:40;94323.22;;;29.64;100.00
15050;BME280;7622;42.724;23.250;2022-08-23T09:37:15;94289.47;;;29.28;100.00
15050;BME280;7622;42.724;23.250;2022-08-23T09:39:44;94325.09;;;29.59;98.88
15050;BME280;7622;42.724;23.250;2022-08-23T09:42:27;94324.25;;;29.03;100.00
15050;BME280;7622;42.724;23.250;2022-08-23T09:44:54;94324.78;;;29.05;100.00
15050;BME280;7622;42.724;23.250;2022-08-23T09:47:30;94321.06;;;29.56;97.34
15050;BME280;7622;42.724;23.250;2022-08-23T09:50:06;94324.25;;;29.68;92.94
15050;BME280;7622;42.724;23.250;2022-08-23T09:52:36;94321.28;;;29.95;87.35
15050;BME280;7622;42.724;23.250;2022-08-23T09:55:07;94325.31;;;29.98;84.46
15050;BME280;7622;42.724;23.250;2022-08-23T09:57:36;94317.00;;;29.74;86.55
15050;BME280;7622;42.724;23.250;2022-08-23T10:00:20;94319.16;;;29.06;89.08
15050;BME280;7622;42.724;23.250;2022-08-23T10:02:48;94325.03;;;28.83;93.00
15050;BME280;7622;42.724;23.250;2022-08-23T10:05:18;94322.13;;;29.30;90.82
15050;BME280;7622;42.724;23.250;2022-08-23T10:07:53;94329.38;;;29.50;92.62
15050;BME280;7622;42.724;23.250;2022-08-23T10:10:26;94333.09;;;29.64;93.27
15050;BME280;7622;42.724;23.250;2022-08-23T10:12:56;94330.97;;;29.56;90.91
15050;BME280;7622;42.724;23.250;2022-08-23T10:15:37;94327.75;;;29.54;81.74
15050;BME280;7622;42.724;23.250;2022-08-23T10:18:11;94326.44;;;29.41;83.10
15050;BME280;7622;42.724;23.250;2022-08-23T10:20:46;94328.28;;;29.30;86.42
15050;BME280;7622;42.724;23.250;2022-08-23T10:23:22;94335.25;;;29.42;78.98
15050;BME280;7622;42.724;23.250;2022-08-23T10:25:57;94332.28;;;29.33;80.50
15050;BME280;7622;42.724;23.250;2022-08-23T10:28:38;94335.78;;;29.49;78.48
15050;BME280;7622;42.724;23.250;2022-08-23T10:31:33;94329.88;;;29.77;77.11
15050;BME280;7622;42.724;23.250;2022-08-23T10:34:23;94319.44;;;29.75;77.23
15050;BME280;7622;42.724;23.250;2022-08-23T10:37:03;94325.03;;;29.18;85.53
15050;BME280;7622;42.724;23.250;2022-08-23T10:39:38;94322.66;;;29.67;83.53
15050;BME280;7622;42.724;23.250;2022-08-23T10:42:10;94324.56;;;29.52;84.05
15050;BME280;7622;42.724;23.250;2022-08-23T10:44:48;94267.75;;;29.70;82.86
15050;BME280;7622;42.724;23.250;2022-08-23T10:47:20;94319.41;;;30.06;82.12
15050;BME280;7622;42.724;23.250;2022-08-23T10:49:53;94312.16;;;29.91;82.88
15050;BME280;7622;42.724;23.250;2022-08-23T10:52:27;94312.97;;;29.92;81.68
15050;BME280;7622;42.724;23.250;2022-08-23T10:54:58;94307.66;;;29.61;84.50
15050;BME280;7622;42.724;23.250;2022-08-23T10:57:33;94306.81;;;29.81;83.41
15050;BME280;7622;42.724;23.250;2022-08-23T11:00:04;94301.94;;;30.08;84.24
15050;BME280;7622;42.724;23.250;2022-08-23T11:02:36;94305.94;;;30.21;83.30
15050;BME280;7622;42.724;23.250;2022-08-23T11:05:18;94299.09;;;30.59;82.46
15050;BME280;7622;42.724;23.250;2022-08-23T11:07:58;94297.34;;;30.78;79.10
15050;BME280;7622;42.724;23.250;2022-08-23T11:10:29;94298.38;;;30.87;79.64
15050;BME280;7622;42.724;23.250;2022-08-23T11:12:58;94285.13;;;30.57;76.05
15050;BME280;7622;42.724;23.250;2022-08-23T11:15:36;94300.84;;;30.84;75.52
15050;BME280;7622;42.724;23.250;2022-08-23T11:18:06;94303.19;;;30.36;79.55
15050;BME280;7622;42.724;23.250;2022-08-23T11:20:58;94300.19;;;30.43;76.37
15050;BME280;7622;42.724;23.250;2022-08-23T11:27:00;94299.97;;;30.49;78.04
15050;BME280;7622;42.724;23.250;2022-08-23T11:29:32;94301.22;;;30.57;78.81
15050;BME280;7622;42.724;23.250;2022-08-23T11:35:05;94295.94;;;30.37;80.78
15050;BME280;7622;42.724;23.250;2022-08-23T11:37:54;94290.41;;;30.18;79.79
15050;BME280;7622;42.724;23.250;2022-08-23T11:40:56;94290.00;;;30.45;81.25
15050;BME280;7622;42.724;23.250;2022-08-23T11:43:27;94289.94;;;30.70;75.24
15050;BME280;7622;42.724;23.250;2022-08-23T11:46:26;94291.91;;;30.39;71.33
15050;BME280;7622;42.724;23.250;2022-08-23T11:51:50;94281.53;;;30.23;69.84
15050;BME280;7622;42.724;23.250;2022-08-23T11:54:37;94297.00;;;30.36;69.91
15050;BME280;7622;42.724;23.250;2022-08-23T11:57:18;94299.13;;;30.54;66.69
15050;BME280;7622;42.724;23.250;2022-08-23T12:00:05;94296.72;;;30.47;67.53
15050;BME280;7622;42.724;23.250;2022-08-23T12:02:44;94279.38;;;30.79;67.47
15050;BME280;7622;42.724;23.250;2022-08-23T12:05:25;94288.56;;;30.13;71.09
15050;BME280;7622;42.724;23.250;2022-08-23T12:08:29;94281.06;;;30.70;68.33
15050;BME280;7622;42.724;23.250;2022-08-23T12:11:01;94278.97;;;30.62;70.11
15050;BME280;7622;42.724;23.250;2022-08-23T12:13:31;94280.41;;;30.39;63.94
15050;BME280;7622;42.724;23.250;2022-08-23T12:16:09;94287.81;;;30.62;63.00
15050;BME280;7622;42.724;23.250;2022-08-23T12:18:38;94279.47;;;30.69;60.70
15050;BME280;7622;42.724;23.250;2022-08-23T12:21:27;94288.31;;;30.64;62.30
15050;BME280;7622;42.724;23.250;2022-08-23T12:24:00;94284.81;;;30.69;62.33
15050;BME280;7622;42.724;23.250;2022-08-23T12:26:33;94281.75;;;30.90;60.59
15050;BME280;7622;42.724;23.250;2022-08-23T12:29:08;94273.50;;;30.77;63.50
15050;BME280;7622;42.724;23.250;2022-08-23T12:31:45;94276.03;;;30.58;63.71
15050;BME280;7622;42.724;23.250;2022-08-23T12:34:22;94277.13;;;30.47;67.64
15050;BME280;7622;42.724;23.250;2022-08-23T12:37:00;94288.53;;;30.19;67.06
15050;BME280;7622;42.724;23.250;2022-08-23T12:39:34;94285.44;;;29.00;87.31
15050;BME280;7622;42.724;23.250;2022-08-23T12:42:05;94273.63;;;28.71;93.57
15050;BME280;7622;42.724;23.250;2022-08-23T12:44:35;94290.50;;;28.09;98.48
15050;BME280;7622;42.724;23.250;2022-08-23T12:47:11;94279.16;;;27.81;100.00
15050;BME280;7622;42.724;23.250;2022-08-23T12:49:38;94280.44;;;27.32;100.00
15050;BME280;7622;42.724;23.250;2022-08-23T12:52:09;94273.16;;;27.17;100.00
15050;BME280;7622;42.724;23.250;2022-08-23T12:54:37;94261.13;;;27.15;100.00
15050;BME280;7622;42.724;23.250;2022-08-23T12:57:07;94258.09;;;27.38;100.00
15050;BME280;7622;42.724;23.250;2022-08-23T12:59:40;94267.03;;;27.22;100.00
15050;BME280;7622;42.724;23.250;2022-08-23T13:02:11;94272.63;;;27.20;100.00
15050;BME280;7622;42.724;23.250;2022-08-23T13:04:40;94258.59;;;27.35;100.00
15050;BME280;7622;42.724;23.250;2022-08-23T13:07:13;94259.16;;;27.42;100.00
15050;BME280;7622;42.724;23.250;2022-08-23T13:09:43;94268.03;;;27.11;100.00
15050;BME280;7622;42.724;23.250;2022-08-23T13:12:10;94266.03;;;27.33;100.00
15050;BME280;7622;42.724;23.250;2022-08-23T13:14:42;94272.97;;;27.29;100.00
15050;BME280;7622;42.724;23.250;2022-08-23T13:17:19;94267.72;;;27.07;100.00
15050;BME280;7622;42.724;23.250;2022-08-23T13:19:48;94274.13;;;27.11;100.00
15050;BME280;7622;42.724;23.250;2022-08-23T13:22:23;94263.88;;;26.93;100.00
15050;BME280;7622;42.724;23.250;2022-08-23T13:25:09;94264.81;;;27.09;100.00
15050;BME280;7622;42.724;23.250;2022-08-23T13:27:50;94245.78;;;26.95;100.00
15050;BME280;7622;42.724;23.250;2022-08-23T13:30:20;94247.56;;;27.21;100.00